Time;durP1;ratioP1;P1;durP2;ratioP2;P2;SDS_P1;SDS_P2;PMS_P1;PMS_P2;Temp;Humidity;BMP_temperature;BMP_pressure;BME280_temperature;BME280_humidity;BME280_pressure;Samples;Min_cycle;Max_cycle;Signal;HPM_P1;HPM_P2
2021/05/01 00:01:21;;;;;;;30.70;22.60;;;;;;;;;;5092520;28;20449;-86
2021/05/01 00:03:48;;;;;;;34.03;24.40;;;5.00;99.90;;;;;;5092629;28;20471;-85
2021/05/01 00:06:15;;;;;;;34.00;23.27;;;;;;;;;;5092438;28;20457;-85
2021/05/01 00:08:41;;;;;;;37.87;24.57;;;;;;;;;;5092562;28;20504;-86
2021/05/01 00:11:08;;;;;;;33.87;23.83;;;;;;;;;;5091631;28;20453;-88
2021/05/01 00:13:35;;;;;;;31.87;22.60;;;5.30;99.90;;;;;;5096372;28;20460;-91
2021/05/01 00:16:03;;;;;;;33.87;24.00;;;5.20;99.90;;;;;;5096228;28;20452;-88
2021/05/01 00:18:30;;;;;;;36.90;23.37;;;;;;;;;;5096398;28;20453;-86
2021/05/01 00:20:57;;;;;;;36.03;25.87;;;;;;;;;;5096196;28;20492;-88
2021/05/01 00:23:23;;;;;;;36.37;25.77;;;5.40;99.90;;;;;;5096534;28;20448;-89
2021/05/01 00:25:50;;;;;;;39.20;26.40;;;;;;;;;;5095119;28;20448;-85
2021/05/01 00:28:16;;;;;;;35.70;25.33;;;;;;;;;;5097677;28;20940;-86
2021/05/01 00:30:43;;;;;;;33.17;23.37;;;5.20;99.90;;;;;;5097379;28;20460;-89
2021/05/01 00:33:10;;;;;;;35.93;24.47;;;5.40;99.90;;;;;;5096879;28;20505;-86
2021/05/01 00:35:37;;;;;;;34.27;24.70;;;5.20;99.90;;;;;;5097134;28;20471;-87
2021/05/01 00:38:04;;;;;;;37.03;26.00;;;;;;;;;;5097079;28;20527;-90
2021/05/01 00:40:30;;;;;;;34.10;25.27;;;;;;;;;;5096059;28;20444;-86
2021/05/01 00:42:57;;;;;;;32.47;22.43;;;5.50;99.90;;;;;;5096324;28;20478;-90
2021/05/01 00:45:24;;;;;;;33.20;23.97;;;;;;;;;;5097027;28;20477;-87
2021/05/01 00:47:51;;;;;;;36.70;24.17;;;;;;;;;;5095763;28;20958;-85
2021/05/01 00:50:18;;;;;;;32.70;23.77;;;5.70;99.90;;;;;;5095982;28;20985;-89
2021/05/01 00:52:45;;;;;;;34.70;24.50;;;;;;;;;;5095906;28;20452;-88
2021/05/01 00:55:11;;;;;;;33.47;24.20;;;5.40;99.90;;;;;;5094595;28;21079;-86
2021/05/01 00:57:38;;;;;;;33.90;23.50;;;;;;;;;;5095657;28;20496;-86
2021/05/01 01:00:10;;;;;;;31.40;22.17;;;6.60;99.90;;;;;;5095934;28;20861;-87
2021/05/01 01:02:37;;;;;;;33.47;24.43;;;;;;;;;;5096617;28;20459;-88
2021/05/01 01:05:05;;;;;;;35.90;25.13;;;5.70;99.90;;;;;;5095606;28;20451;-89
2021/05/01 01:07:32;;;;;;;42.73;23.43;;;5.70;99.90;;;;;;5095435;28;20452;-85
2021/05/01 01:09:59;;;;;;;37.10;26.57;;;5.90;99.90;;;;;;5095341;28;20453;-87
2021/05/01 01:12:25;;;;;;;42.23;25.50;;;;;;;;;;5090840;28;20443;-86
2021/05/01 01:14:52;;;;;;;39.23;26.60;;;;;;;;;;5088381;28;20460;-87
2021/05/01 01:17:18;;;;;;;39.87;25.53;;;;;;;;;;5087246;28;20511;-86
2021/05/01 01:19:45;;;;;;;38.20;25.37;;;;;;;;;;5094860;28;20823;-87
2021/05/01 01:22:15;;;;;;;37.63;26.00;;;5.80;99.90;;;;;;5095105;28;20473;-86
2021/05/01 01:24:41;;;;;;;35.63;23.97;;;5.80;99.90;;;;;;5094353;28;20819;-88
2021/05/01 01:27:09;;;;;;;36.27;25.07;;;5.50;99.90;;;;;;5094000;28;20555;-85
2021/05/01 01:29:37;;;;;;;35.00;25.77;;;5.70;99.90;;;;;;5094806;28;20449;-87
2021/05/01 01:32:05;;;;;;;38.63;27.00;;;5.00;99.90;;;;;;5094907;28;20457;-90
2021/05/01 01:34:32;;;;;;;39.23;27.43;;;5.60;99.90;;;;;;5095165;28;20453;-86
2021/05/01 01:36:58;;;;;;;36.20;24.80;;;5.70;99.90;;;;;;5095111;28;20565;-90
2021/05/01 01:39:25;;;;;;;38.20;24.80;;;4.90;99.90;;;;;;5095022;28;20994;-87
2021/05/01 01:41:52;;;;;;;39.10;25.37;;;;;;;;;;5093763;28;20449;-86
2021/05/01 01:44:18;;;;;;;37.50;25.73;;;;;;;;;;5094765;28;20445;-87
2021/05/01 01:46:45;;;;;;;37.63;25.20;;;5.70;99.90;;;;;;5094215;28;20472;-89
2021/05/01 01:49:12;;;;;;;36.67;26.20;;;5.70;99.90;;;;;;5094629;28;20453;-85
2021/05/01 01:51:38;;;;;;;36.27;25.10;;;;;;;;;;5094620;28;20923;-87
2021/05/01 01:54:06;;;;;;;36.83;25.00;;;5.60;99.90;;;;;;5095035;28;20449;-91
2021/05/01 01:56:37;;;;;;;38.13;25.33;;;5.80;99.90;;;;;;5093382;28;20485;-89
2021/05/01 01:59:04;;;;;;;40.43;25.30;;;5.60;99.90;;;;;;5094784;28;20533;-85
2021/05/01 02:01:30;;;;;;;39.10;26.37;;;;;;;;;;5092972;28;20437;-85
2021/05/01 02:03:57;;;;;;;35.43;25.30;;;;;;;;;;5094735;28;20962;-87
2021/05/01 02:06:24;;;;;;;37.50;25.97;;;;;;;;;;5094418;28;20456;-86
2021/05/01 02:08:50;;;;;;;37.43;26.00;;;;;;;;;;5094827;28;20539;-85
2021/05/01 02:11:17;;;;;;;42.83;27.53;;;4.40;99.90;;;;;;5092922;28;20798;-90
2021/05/01 02:13:44;;;;;;;38.60;26.30;;;6.10;99.90;;;;;;5093756;28;20445;-90
2021/05/01 02:16:10;;;;;;;44.10;29.40;;;5.90;99.90;;;;;;5094216;28;20449;-85
2021/05/01 02:18:37;;;;;;;40.67;27.70;;;;;;;;;;5093498;28;20457;-86
2021/05/01 02:21:04;;;;;;;40.80;26.37;;;5.90;99.90;;;;;;5093989;28;21002;-85
2021/05/01 02:23:30;;;;;;;41.33;26.70;;;;;;;;;;5094170;28;20456;-88
2021/05/01 02:25:57;;;;;;;37.70;26.60;;;5.90;99.90;;;;;;5093042;28;20441;-89
2021/05/01 02:28:23;;;;;;;41.90;28.53;;;;;;;;;;5094179;28;20455;-86
2021/05/01 02:30:51;;;;;;;38.37;26.30;;;5.90;99.90;;;;;;5094236;28;20520;-86
2021/05/01 02:33:18;;;;;;;42.00;27.53;;;;;;;;;;5094149;28;20570;-86
2021/05/01 02:35:44;;;;;;;43.53;27.97;;;6.10;99.90;;;;;;5093850;28;20445;-89
2021/05/01 02:38:11;;;;;;;43.73;28.13;;;;;;;;;;5093758;28;20488;-86
2021/05/01 02:40:37;;;;;;;45.77;28.10;;;;;;;;;;5092123;28;20936;-88
2021/05/01 02:43:05;;;;;;;39.60;26.87;;;6.00;99.90;;;;;;5093840;28;20444;-87
2021/05/01 02:45:32;;;;;;;43.67;29.80;;;;;;;;;;5093869;28;20473;-88
2021/05/01 02:48:00;;;;;;;38.13;27.50;;;6.20;99.90;;;;;;5093973;28;20452;-88
2021/05/01 02:50:26;;;;;;;43.10;27.07;;;;;;;;;;5093581;28;20441;-85
2021/05/01 02:52:53;;;;;;;38.40;26.40;;;;;;;;;;5093601;28;20486;-86
2021/05/01 02:55:20;;;;;;;38.00;25.80;;;;;;;;;;5088646;28;20444;-85
2021/05/01 02:57:48;;;;;;;40.70;27.60;;;5.90;99.90;;;;;;5090455;28;20503;-86
2021/05/01 03:00:17;;;;;;;41.47;28.43;;;5.90;99.90;;;;;;5093432;28;20465;-87
2021/05/01 03:02:43;;;;;;;42.87;28.10;;;;;;;;;;5093473;28;20445;-86
2021/05/01 03:05:13;;;;;;;43.97;29.50;;;5.50;99.90;;;;;;5093511;28;20444;-86
2021/05/01 03:07:40;;;;;;;38.47;28.07;;;;;;;;;;5093280;28;20448;-86
2021/05/01 03:10:08;;;;;;;40.90;25.67;;;6.10;99.90;;;;;;5092946;28;20445;-89
2021/05/01 03:12:35;;;;;;;37.80;26.67;;;;;;;;;;5091344;28;20444;-86
2021/05/01 03:15:03;;;;;;;39.90;26.77;;;6.10;99.90;;;;;;5093087;28;20498;-89
2021/05/01 03:17:30;;;;;;;33.30;25.10;;;6.00;99.90;;;;;;5093102;28;20484;-89
2021/05/01 03:19:56;;;;;;;35.90;25.90;;;;;;;;;;5092910;28;20479;-88
2021/05/01 03:22:24;;;;;;;42.80;26.77;;;6.20;99.90;;;;;;5093125;28;20449;-86
2021/05/01 03:24:50;;;;;;;42.43;26.93;;;;;;;;;;5092704;28;20453;-85
2021/05/01 03:27:17;;;;;;;35.77;26.10;;;6.10;99.90;;;;;;5092122;28;20510;-86
2021/05/01 03:29:43;;;;;;;38.10;25.53;;;;;;;;;;5092724;28;20851;-88
2021/05/01 03:32:09;;;;;;;38.53;28.07;;;5.90;99.90;;;;;;5092967;28;20464;-85
2021/05/01 03:34:36;;;;;;;39.00;27.47;;;;;;;;;;5092780;28;20917;-85
2021/05/01 03:37:03;;;;;;;39.97;27.03;;;;;;;;;;5092803;28;20476;-85
2021/05/01 03:39:30;;;;;;;38.80;28.30;;;6.10;99.90;;;;;;5092882;28;20475;-86
2021/05/01 03:41:56;;;;;;;37.20;26.80;;;;;;;;;;5091762;28;20445;-85
2021/05/01 03:44:23;;;;;;;41.13;26.40;;;6.10;99.90;;;;;;5092996;28;20464;-86
2021/05/01 03:46:49;;;;;;;44.93;28.80;;;;;;;;;;5092466;28;20850;-86
2021/05/01 03:49:15;;;;;;;39.47;26.07;;;6.00;99.90;;;;;;5092782;28;20452;-86
2021/05/01 03:51:42;;;;;;;35.17;22.07;;;;;;;;;;5092691;28;20445;-85
2021/05/01 03:54:09;;;;;;;35.63;22.90;;;;;;;;;;5092675;28;20445;-86
2021/05/01 03:56:36;;;;;;;31.60;22.43;;;5.90;99.90;;;;;;5091405;28;20440;-87
2021/05/01 03:59:02;;;;;;;32.10;22.07;;;6.00;99.90;;;;;;5092738;28;20895;-85
2021/05/01 04:01:29;;;;;;;38.70;26.23;;;5.60;99.90;;;;;;5092942;28;20502;-87
2021/05/01 04:03:55;;;;;;;40.30;27.07;;;6.00;99.90;;;;;;5092483;28;20441;-86
2021/05/01 04:06:22;;;;;;;43.70;29.70;;;;;;;;;;5092679;28;20453;-86
2021/05/01 04:08:48;;;;;;;40.83;27.27;;;;;;;;;;5092705;28;20508;-86
2021/05/01 04:11:15;;;;;;;38.17;27.80;;;6.10;99.90;;;;;;5091167;28;20445;-87
2021/05/01 04:13:45;;;;;;;37.20;26.47;;;6.00;99.90;;;;;;5091071;28;20837;-89
2021/05/01 04:16:11;;;;;;;35.73;25.53;;;5.90;99.90;;;;;;5092129;28;20460;-86
2021/05/01 04:18:38;;;;;;;32.27;22.63;;;;;;;;;;5091950;28;20840;-86
2021/05/01 04:21:05;;;;;;;36.77;24.87;;;6.20;99.90;;;;;;5092326;28;20522;-86
2021/05/01 04:23:31;;;;;;;36.30;25.10;;;6.10;99.90;;;;;;5092396;28;20464;-86
2021/05/01 04:25:57;;;;;;;40.13;26.30;;;;;;;;;;5091263;28;20440;-86
2021/05/01 04:28:24;;;;;;;34.07;25.17;;;;;;;;;;5092490;28;20449;-87
2021/05/01 04:30:51;;;;;;;32.87;24.77;;;6.00;99.90;;;;;;5092150;28;20437;-88
2021/05/01 04:33:18;;;;;;;35.10;23.83;;;;;;;;;;5092489;28;20441;-88
2021/05/01 04:35:44;;;;;;;34.77;24.67;;;;;;;;;;5092230;28;20455;-86
2021/05/01 04:38:11;;;;;;;33.17;24.47;;;;;;;;;;5092476;28;20492;-85
2021/05/01 04:40:38;;;;;;;42.27;28.37;;;;;;;;;;5091317;28;20445;-87
2021/05/01 04:43:06;;;;;;;41.57;27.97;;;;;;;;;;5092237;28;20491;-86
2021/05/01 04:45:33;;;;;;;40.17;27.67;;;6.20;99.90;;;;;;5092075;28;20810;-88
2021/05/01 04:48:00;;;;;;;41.30;26.80;;;6.20;99.90;;;;;;5092296;28;20456;-87
2021/05/01 04:50:26;;;;;;;40.53;27.00;;;6.50;99.90;;;;;;5091924;28;20486;-86
2021/05/01 04:52:53;;;;;;;41.10;28.40;;;;;;;;;;5092241;28;20448;-91
2021/05/01 04:55:19;;;;;;;45.97;29.90;;;;;;;;;;5091076;28;20782;-86
2021/05/01 04:57:47;;;;;;;43.30;30.40;;;6.40;99.90;;;;;;5092001;28;21003;-87
2021/05/01 05:00:16;;;;;;;39.93;26.77;;;6.40;99.90;;;;;;5095821;28;20448;-85
2021/05/01 05:02:43;;;;;;;41.87;28.27;;;6.00;99.90;;;;;;5095601;28;20813;-86
2021/05/01 05:05:13;;;;;;;41.43;28.90;;;6.40;99.90;;;;;;5095790;28;20465;-89
2021/05/01 05:07:40;;;;;;;45.97;29.63;;;6.40;99.90;;;;;;5095645;28;20444;-88
2021/05/01 05:10:08;;;;;;;40.80;29.37;;;6.40;99.90;;;;;;5095287;28;20459;-86
2021/05/01 05:12:35;;;;;;;48.70;29.80;;;;;;;;;;5094768;28;20444;-86
2021/05/01 05:15:02;;;;;;;44.30;29.10;;;;;;;;;;5095483;28;20444;-85
2021/05/01 05:17:28;;;;;;;44.30;29.90;;;;;;;;;;5095367;28;20995;-86
2021/05/01 05:19:55;;;;;;;48.77;31.77;;;;;;;;;;5094975;28;20853;-85
2021/05/01 05:22:23;;;;;;;42.53;28.73;;;6.50;99.90;;;;;;5094817;28;20448;-86
2021/05/01 05:24:50;;;;;;;39.70;26.90;;;6.80;99.90;;;;;;5095296;28;20494;-85
2021/05/01 05:27:16;;;;;;;39.13;26.23;;;;;;;;;;5094023;28;20477;-85
2021/05/01 05:29:47;;;;;;;37.10;26.67;;;6.50;99.90;;;;;;5095273;28;20849;-85
2021/05/01 05:32:14;;;;;;;39.17;27.97;;;;;;;;;;5095002;28;20766;-85
2021/05/01 05:34:40;;;;;;;40.10;26.70;;;;;;;;;;5095182;28;20453;-88
2021/05/01 05:37:07;;;;;;;39.67;27.30;;;;;;;;;;5095126;28;20507;-85
2021/05/01 05:39:34;;;;;;;45.60;26.97;;;6.60;99.90;;;;;;5095359;28;20448;-87
2021/05/01 05:42:01;;;;;;;43.67;28.73;;;;;;;;;;5093524;28;20449;-85
2021/05/01 05:44:28;;;;;;;40.47;28.50;;;6.40;99.90;;;;;;5094939;28;20469;-87
2021/05/01 05:46:55;;;;;;;41.33;27.83;;;;;;;;;;5095020;28;20457;-87
2021/05/01 05:49:21;;;;;;;42.17;28.07;;;;;;;;;;5094825;28;20490;-89
2021/05/01 05:51:48;;;;;;;43.77;28.80;;;;;;;;;;5094837;28;20475;-88
2021/05/01 05:54:14;;;;;;;41.73;29.07;;;;;;;;;;5094481;28;20789;-85
2021/05/01 05:56:42;;;;;;;46.13;29.70;;;6.70;99.90;;;;;;5093345;28;20441;-88
2021/05/01 05:59:08;;;;;;;44.80;29.80;;;;;;;;;;5093125;28;20464;-90
2021/05/01 06:01:39;;;;;;;47.50;30.17;;;6.80;99.90;;;;;;5094255;28;20493;-89
2021/05/01 06:04:10;;;;;;;43.40;28.83;;;6.80;99.90;;;;;;5094518;28;20932;-88
2021/05/01 06:06:42;;;;;;;41.00;27.73;;;6.80;99.90;;;;;;5094688;28;20449;-91
2021/05/01 06:09:09;;;;;;;44.30;30.43;;;;;;;;;;5094127;28;20919;-89
2021/05/01 06:11:37;;;;;;;39.93;28.67;;;6.80;99.90;;;;;;5093442;28;20961;-91
2021/05/01 06:14:05;;;;;;;36.17;27.70;;;6.80;99.90;;;;;;5094634;28;20475;-87
2021/05/01 06:16:31;;;;;;;44.67;28.10;;;6.40;99.90;;;;;;5094198;28;20448;-90
2021/05/01 06:18:59;;;;;;;41.13;28.33;;;6.70;99.90;;;;;;5094311;28;20440;-87
2021/05/01 06:21:25;;;;;;;41.53;28.73;;;;;;;;;;5094388;28;20511;-89
2021/05/01 06:23:52;;;;;;;40.57;28.97;;;;;;;;;;5094111;28;20509;-89
2021/05/01 06:26:19;;;;;;;37.63;26.10;;;7.00;99.90;;;;;;5093505;28;20482;-88
2021/05/01 06:28:45;;;;;;;44.10;29.70;;;;;;;;;;5094303;28;20473;-87
2021/05/01 06:31:12;;;;;;;38.33;27.67;;;7.10;99.90;;;;;;5093911;28;20837;-88
2021/05/01 06:33:40;;;;;;;43.17;28.10;;;;;;;;;;5094060;28;20441;-92
2021/05/01 06:36:09;;;;;;;39.23;27.77;;;7.20;99.90;;;;;;5093508;28;20452;-90
2021/05/01 06:38:35;;;;;;;37.90;27.67;;;7.20;99.90;;;;;;5094104;28;20491;-90
2021/05/01 06:41:06;;;;;;;42.57;30.23;;;7.20;99.90;;;;;;5092658;28;20502;-86
2021/05/01 06:43:44;;;;;;;39.40;27.67;;;6.90;99.90;;;;;;5093579;28;20917;-86
2021/05/01 06:46:15;;;;;;;39.00;27.43;;;7.30;99.90;;;;;;5093736;28;20943;-88
2021/05/01 06:48:41;;;;;;;35.10;24.97;;;7.30;99.90;;;;;;5093456;28;20854;-87
2021/05/01 06:51:08;;;;;;;38.70;27.30;;;;;;;;;;5093608;28;20449;-87
2021/05/01 06:53:36;;;;;;;35.40;25.17;;;7.20;99.90;;;;;;5093338;28;20818;-87
2021/05/01 06:56:05;;;;;;;39.40;26.40;;;7.20;99.90;;;;;;5092621;28;20436;-88
2021/05/01 06:58:32;;;;;;;37.33;26.73;;;6.90;99.90;;;;;;5093488;28;20491;-86
2021/05/01 07:01:02;;;;;;;37.97;27.50;;;7.10;99.90;;;;;;5093590;28;20784;-90
2021/05/01 07:03:32;;;;;;;38.60;27.53;;;8.80;99.90;;;;;;5093658;28;20445;-89
2021/05/01 07:06:01;;;;;;;35.80;26.30;;;7.10;99.90;;;;;;5093906;28;20447;-91
2021/05/01 07:08:28;;;;;;;40.83;28.77;;;7.40;99.90;;;;;;5093950;28;20452;-87
2021/05/01 07:10:54;;;;;;;40.53;29.63;;;6.80;99.90;;;;;;5092630;28;20808;-88
2021/05/01 07:13:21;;;;;;;36.37;26.17;;;;;;;;;;5093284;28;20508;-88
2021/05/01 07:15:47;;;;;;;37.40;27.13;;;7.30;99.90;;;;;;5094198;28;20448;-88
2021/05/01 07:18:14;;;;;;;37.30;27.90;;;6.90;99.90;;;;;;5093187;28;20507;-86
2021/05/01 07:20:42;;;;;;;39.47;27.27;;;7.30;99.90;;;;;;5092389;28;20545;-87
2021/05/01 07:23:08;;;;;;;38.17;28.23;;;7.30;99.90;;;;;;5090883;28;20444;-90
2021/05/01 07:25:35;;;;;;;44.90;28.97;;;7.30;99.90;;;;;;5092791;28;20814;-89
2021/05/01 07:28:04;;;;;;;45.07;26.10;;;7.10;99.90;;;;;;5085565;28;20449;-87
2021/05/01 07:30:32;;;;;;;39.30;27.60;;;7.00;99.90;;;;;;5083604;28;20440;-86
2021/05/01 07:33:03;;;;;;;32.90;25.00;;;7.00;99.90;;;;;;5073325;28;20453;-90
2021/05/01 07:35:31;;;;;;;31.07;24.77;;;7.20;99.90;;;;;;5072922;28;20445;-90
2021/05/01 07:38:06;;;;;;;34.77;25.37;;;7.20;99.90;;;;;;5087112;28;20881;-90
2021/05/01 07:40:33;;;;;;;34.30;24.93;;;;;;;;;;5088924;28;20428;-90
2021/05/01 07:43:00;;;;;;;35.47;25.30;;;7.30;99.90;;;;;;5092998;28;20486;-91
2021/05/01 07:45:27;;;;;;;36.10;26.13;;;7.50;99.90;;;;;;5074739;28;20472;-90
2021/05/01 07:47:55;;;;;;;34.03;24.30;;;7.50;99.90;;;;;;5073149;28;20453;-90
2021/05/01 07:50:22;;;;;;;34.63;25.80;;;;;;;;;;5072982;28;20441;-91
2021/05/01 07:52:50;;;;;;;35.83;27.03;;;7.30;99.90;;;;;;5072683;28;20781;-89
2021/05/01 07:55:18;;;;;;;36.53;25.97;;;7.80;99.90;;;;;;5072593;28;20456;-88
2021/05/01 07:57:46;;;;;;;33.20;25.57;;;8.00;99.90;;;;;;5072692;28;20507;-91
2021/05/01 08:00:14;;;;;;;35.47;24.73;;;7.90;99.90;;;;;;5073946;28;20462;-90
2021/05/01 08:02:41;;;;;;;37.07;25.10;;;;;;;;;;5054881;28;20909;-89
2021/05/01 08:05:09;;;;;;;31.13;23.30;;;7.60;99.90;;;;;;5074015;28;20902;-90
2021/05/01 08:07:35;;;;;;;35.27;26.30;;;7.60;99.90;;;;;;5072437;28;20441;-89
2021/05/01 08:10:02;;;;;;;34.47;25.17;;;;;;;;;;5072785;28;20480;-89
2021/05/01 08:12:29;;;;;;;33.13;24.10;;;7.90;99.90;;;;;;5072560;28;20453;-89
2021/05/01 08:14:58;;;;;;;33.07;23.67;;;7.70;99.90;;;;;;5074260;28;20530;-89
2021/05/01 08:17:24;;;;;;;33.40;24.27;;;7.40;99.90;;;;;;5073386;28;20551;-87
2021/05/01 08:19:52;;;;;;;30.00;22.23;;;7.50;99.90;;;;;;5072415;28;20508;-87
2021/05/01 08:22:19;;;;;;;29.97;22.87;;;;;;;;;;5072041;28;20478;-87
2021/05/01 08:24:45;;;;;;;37.83;23.83;;;7.50;99.90;;;;;;5073444;28;20499;-90
2021/05/01 08:27:11;;;;;;;34.17;24.00;;;7.70;99.90;;;;;;5073424;28;20441;-90
2021/05/01 08:29:50;;;;;;;28.83;22.40;;;7.90;99.90;;;;;;5075724;28;20450;-89
2021/05/01 08:32:17;;;;;;;27.60;22.07;;;;;;;;;;5075175;28;20457;-87
2021/05/01 08:34:44;;;;;;;30.50;23.60;;;;;;;;;;5078943;28;20510;-86
2021/05/01 08:37:10;;;;;;;31.33;24.17;;;7.90;99.90;;;;;;5088365;28;20892;-88
2021/05/01 08:39:38;;;;;;;32.60;23.10;;;;;;;;;;5083323;28;20442;-88
2021/05/01 08:42:04;;;;;;;29.10;21.90;;;8.10;99.90;;;;;;5092967;28;20448;-91
2021/05/01 08:44:31;;;;;;;27.67;22.10;;;;;;;;;;5097698;28;20490;-91
2021/05/01 08:46:59;;;;;;;30.63;23.67;;;7.90;99.90;;;;;;5095243;28;20433;-87
2021/05/01 08:49:28;;;;;;;33.27;23.20;;;;;;;;;;5089578;28;20540;-90
2021/05/01 08:51:56;;;;;;;24.20;19.67;;;;;;;;;;5089239;28;20508;-90
2021/05/01 08:54:23;;;;;;;27.00;21.63;;;;;;;;;;5097650;28;20451;-90
2021/05/01 08:56:50;;;;;;;28.50;21.90;;;8.20;99.90;;;;;;5088819;28;20441;-89
2021/05/01 08:59:16;;;;;;;30.23;21.40;;;;;;;;;;5097351;28;20437;-93
2021/05/01 09:01:43;;;;;;;26.10;20.47;;;8.40;99.90;;;;;;5090010;28;20441;-90
2021/05/01 09:04:11;;;;;;;27.13;21.17;;;8.60;99.90;;;;;;5091131;28;20453;-90
2021/05/01 09:06:38;;;;;;;25.10;19.93;;;8.40;99.90;;;;;;5090087;28;20474;-91
2021/05/01 09:09:06;;;;;;;26.03;20.80;;;8.60;99.90;;;;;;5090384;28;20445;-92
2021/05/01 09:11:34;;;;;;;20.67;18.30;;;8.80;99.90;;;;;;5085861;28;20591;-89
2021/05/01 09:14:00;;;;;;;27.83;19.80;;;;;;;;;;5086819;28;20937;-90
2021/05/01 09:16:27;;;;;;;29.70;20.20;;;8.90;99.90;;;;;;5081481;28;20453;-90
2021/05/01 09:19:04;;;;;;;25.70;20.33;;;8.60;99.90;;;;;;5078811;28;20542;-88
2021/05/01 09:21:37;;;;;;;22.83;19.17;;;9.20;99.90;;;;;;5078109;28;20848;-89
2021/05/01 09:24:04;;;;;;;22.27;18.70;;;9.10;99.90;;;;;;5078421;28;20503;-91
2021/05/01 09:26:35;;;;;;;27.83;19.23;;;9.10;99.90;;;;;;5086171;28;20442;-91
2021/05/01 09:29:03;;;;;;;21.03;16.63;;;9.30;99.90;;;;;;5077159;28;20539;-91
2021/05/01 09:31:39;;;;;;;21.60;18.90;;;9.00;99.90;;;;;;5082774;28;20454;-90
2021/05/01 09:34:08;;;;;;;22.40;19.33;;;9.00;99.90;;;;;;5097280;28;20858;-90
2021/05/01 09:36:36;;;;;;;21.00;17.50;;;8.90;99.90;;;;;;5097035;28;20452;-89
2021/05/01 09:39:11;;;;;;;25.00;18.77;;;9.10;99.90;;;;;;5092043;28;20963;-89
2021/05/01 09:41:40;;;;;;;22.33;18.70;;;9.10;99.90;;;;;;5093504;28;20539;-91
2021/05/01 09:44:08;;;;;;;21.77;16.27;;;9.30;99.90;;;;;;5091007;28;20454;-90
2021/05/01 09:46:46;;;;;;;23.50;19.17;;;9.30;99.90;;;;;;5085416;28;20532;-89
2021/05/01 09:49:14;;;;;;;23.67;18.50;;;9.30;99.90;;;;;;5075853;28;20940;-89
2021/05/01 09:51:50;;;;;;;21.80;18.00;;;9.40;99.90;;;;;;5080697;28;20956;-91
2021/05/01 09:54:19;;;;;;;23.03;18.63;;;9.50;99.90;;;;;;5091542;28;20448;-90
2021/05/01 09:56:48;;;;;;;20.07;17.27;;;9.30;99.90;;;;;;5089792;28;20809;-91
2021/05/01 09:59:20;;;;;;;23.93;19.30;;;9.90;99.90;;;;;;5097981;28;20488;-93
2021/05/01 10:01:56;;;;;;;21.70;18.60;;;10.00;99.90;;;;;;5093622;28;20442;-93
2021/05/01 10:04:22;;;;;;;21.33;18.40;;;;;;;;;;5078001;28;20472;-91
2021/05/01 10:06:52;;;;;;;23.80;18.23;;;10.40;99.90;;;;;;5075925;28;20461;-92
2021/05/01 10:09:23;;;;;;;20.80;17.73;;;10.60;99.90;;;;;;5075872;28;20438;-92
2021/05/01 10:11:52;;;;;;;21.67;17.67;;;10.70;99.90;;;;;;5073879;28;20820;-91
2021/05/01 10:14:35;;;;;;;21.10;18.80;;;10.90;99.90;;;;;;5075829;28;20458;-90
2021/05/01 10:17:02;;;;;;;19.53;17.40;;;10.70;99.90;;;;;;5076433;28;20453;-92
2021/05/01 10:19:44;;;;;;;21.47;17.47;;;10.50;99.90;;;;;;5078917;28;20458;-90
2021/05/01 10:22:33;;;;;;;20.07;16.37;;;10.20;99.90;;;;;;5074181;28;20465;-90
2021/05/01 10:25:02;;;;;;;20.93;16.80;;;10.70;99.90;;;;;;5075652;28;20448;-90
2021/05/01 10:27:28;;;;;;;23.10;18.33;;;;;;;;;;5076061;28;20449;-89
2021/05/01 10:30:11;;;;;;;21.67;17.20;;;10.20;99.90;;;;;;5075804;28;20453;-92
2021/05/01 10:32:46;;;;;;;23.83;20.10;;;10.30;99.90;;;;;;5093260;28;20457;-91
2021/05/01 10:35:13;;;;;;;24.93;19.90;;;;;;;;;;5091720;28;20455;-90
2021/05/01 10:37:51;;;;;;;24.90;19.73;;;10.40;99.90;;;;;;5088736;28;20995;-92
2021/05/01 10:40:17;;;;;;;25.07;20.90;;;;;;;;;;5070796;28;20849;-90
2021/05/01 10:43:06;;;;;;;26.03;19.63;;;10.60;99.90;;;;;;5080042;28;20481;-91
2021/05/01 10:45:36;;;;;;;22.93;19.23;;;;;;;;;;5085302;28;20458;-89
2021/05/01 10:48:10;;;;;;;20.03;17.80;;;10.80;99.90;;;;;;5090986;28;20454;-88
2021/05/01 10:50:37;;;;;;;24.70;18.83;;;10.40;99.90;;;;;;5075091;28;20471;-89
2021/05/01 10:53:06;;;;;;;23.87;19.47;;;10.50;99.90;;;;;;5075540;28;20524;-89
2021/05/01 10:55:48;;;;;;;23.27;19.10;;;9.50;99.90;;;;;;5073365;28;20862;-89
2021/05/01 10:58:30;;;;;;;23.57;19.73;;;10.10;99.90;;;;;;5069531;28;20563;-88
2021/05/01 11:00:57;;;;;;;21.83;19.43;;;;;;;;;;5075944;28;20449;-88
2021/05/01 11:03:25;;;;;;;23.13;18.50;;;10.10;99.90;;;;;;5076886;28;20503;-89
2021/05/01 11:05:55;;;;;;;21.97;18.90;;;10.20;99.90;;;;;;5076812;28;20461;-89
2021/05/01 11:08:50;;;;;;;22.23;18.83;;;10.50;99.90;;;;;;5075981;28;20476;-87
2021/05/01 11:11:19;;;;;;;24.70;20.10;;;10.80;99.90;;;;;;5071131;28;20449;-89
2021/05/01 11:13:50;;;;;;;27.10;20.30;;;11.00;99.90;;;;;;5084627;28;20944;-87
2021/05/01 11:16:18;;;;;;;26.27;20.90;;;11.30;99.90;;;;;;5091412;28;20449;-89
2021/05/01 11:18:46;;;;;;;26.03;20.97;;;10.50;99.90;;;;;;5093558;28;20990;-89
2021/05/01 11:21:14;;;;;;;22.70;19.03;;;10.40;99.90;;;;;;5093905;28;20499;-89
2021/05/01 11:23:42;;;;;;;25.63;22.17;;;10.40;99.90;;;;;;5094076;28;20441;-88
2021/05/01 11:26:16;;;;;;;27.23;19.97;;;10.80;99.90;;;;;;5079477;28;20631;-91
2021/05/01 11:28:43;;;;;;;24.73;20.67;;;;;;;;;;5075800;28;20495;-85
2021/05/01 11:31:10;;;;;;;26.07;22.13;;;10.20;99.90;;;;;;5075639;28;20488;-90
2021/05/01 11:33:39;;;;;;;27.43;22.23;;;10.40;99.90;;;;;;5074847;28;20476;-88
2021/05/01 11:36:08;;;;;;;26.20;21.57;;;10.40;99.90;;;;;;5073656;28;20446;-91
2021/05/01 11:38:39;;;;;;;26.17;21.77;;;10.30;99.90;;;;;;5073273;28;20485;-89
2021/05/01 11:41:11;;;;;;;26.30;22.20;;;10.50;99.90;;;;;;5072329;28;20446;-90
2021/05/01 11:43:39;;;;;;;24.90;19.97;;;10.60;99.90;;;;;;5073686;28;20453;-88
2021/05/01 11:46:16;;;;;;;26.87;21.97;;;10.80;99.90;;;;;;5073158;28;20446;-90
2021/05/01 11:48:48;;;;;;;24.17;21.57;;;11.10;99.90;;;;;;5073562;28;20842;-91
2021/05/01 11:51:17;;;;;;;29.67;22.30;;;11.20;99.90;;;;;;5075752;28;20449;-92
2021/05/01 11:53:46;;;;;;;27.50;23.10;;;11.30;99.90;;;;;;5075583;28;20449;-91
2021/05/01 11:56:27;;;;;;;26.33;20.60;;;11.00;99.90;;;;;;5073464;28;20532;-90
2021/05/01 11:59:08;;;;;;;29.60;23.20;;;11.00;99.90;;;;;;5073439;28;20485;-92
2021/05/01 12:01:41;;;;;;;25.87;20.33;;;11.30;99.90;;;;;;5073398;28;20441;-89
2021/05/01 12:04:08;;;;;;;25.53;21.73;;;;;;;;;;5072900;28;20499;-88
2021/05/01 12:06:39;;;;;;;28.03;23.10;;;11.40;99.90;;;;;;5073408;28;20445;-89
2021/05/01 12:09:08;;;;;;;26.50;22.57;;;11.30;99.90;;;;;;5077486;28;20510;-90
2021/05/01 12:11:37;;;;;;;28.30;22.80;;;11.20;99.90;;;;;;5077324;28;20464;-92
2021/05/01 12:14:09;;;;;;;27.07;22.13;;;11.00;99.90;;;;;;5077206;28;20444;-91
2021/05/01 12:16:36;;;;;;;27.70;22.07;;;10.80;99.90;;;;;;5078064;28;20450;-89
2021/05/01 12:19:03;;;;;;;29.80;24.03;;;10.90;99.90;;;;;;5076786;28;20893;-90
2021/05/01 12:21:31;;;;;;;24.20;21.00;;;10.90;99.90;;;;;;5076602;28;20477;-91
2021/05/01 12:23:59;;;;;;;25.40;20.50;;;11.10;99.90;;;;;;5077108;28;20456;-90
2021/05/01 12:26:40;;;;;;;24.70;21.30;;;10.90;99.90;;;;;;5077001;28;20469;-94
2021/05/01 12:29:27;;;;;;;27.17;21.73;;;11.00;99.90;;;;;;5074367;28;20448;-91
2021/05/01 12:31:55;;;;;;;27.10;22.67;;;10.40;99.90;;;;;;5078263;28;20502;-89
2021/05/01 12:34:22;;;;;;;24.47;21.30;;;10.90;99.90;;;;;;5089392;28;20437;-91
2021/05/01 12:36:50;;;;;;;27.90;21.90;;;10.90;99.90;;;;;;5091279;28;20437;-90
2021/05/01 12:39:23;;;;;;;28.60;21.10;;;11.00;99.90;;;;;;5092864;28;20484;-90
2021/05/01 12:41:51;;;;;;;28.90;23.10;;;;;;;;;;5084415;28;20453;-90
2021/05/01 12:44:34;;;;;;;27.70;22.00;;;11.10;99.90;;;;;;5087837;28;20798;-90
2021/05/01 12:47:01;;;;;;;28.57;23.37;;;;;;;;;;5096273;28;20798;-90
2021/05/01 12:49:32;;;;;;;26.53;22.30;;;10.90;99.90;;;;;;5095213;28;20448;-91
2021/05/01 12:52:08;;;;;;;31.97;24.30;;;10.70;99.90;;;;;;5097712;28;20437;-88
2021/05/01 12:54:40;;;;;;;28.50;23.23;;;10.40;99.90;;;;;;5099932;28;20510;-91
2021/05/01 12:57:09;;;;;;;28.80;24.67;;;11.40;99.90;;;;;;5097572;28;20449;-90
2021/05/01 12:59:42;;;;;;;26.90;21.93;;;10.10;99.90;;;;;;5099030;28;20487;-89
2021/05/01 13:02:19;;;;;;;27.63;24.13;;;9.90;99.90;;;;;;5099328;28;20460;-91
2021/05/01 13:05:08;;;;;;;28.43;24.23;;;9.90;99.90;;;;;;5096523;28;20487;-90
2021/05/01 13:07:37;;;;;;;33.23;25.20;;;9.90;99.90;;;;;;5098193;28;20467;-89
2021/05/01 13:10:05;;;;;;;26.50;21.83;;;10.20;99.90;;;;;;5099245;28;20444;-90
2021/05/01 13:12:36;;;;;;;28.83;23.33;;;9.50;99.90;;;;;;5090955;28;20453;-87